Wangaratta Airport
YWGT : now visible

Airfield :











YOU CAN JOIN US ON...

 
LOGIN :

Register | Disclaimer

   EN    FR    IT 

 









Legend :    VFR   Marginal VFR   IFR   Intensive IFR   Very Intensive IFR
Visi :
Ceiling :
>= 8 km
>= 3000ft
5 to 8 km
1000 to 3000 ft
1500m to 5 km
500 to 1000 ft
800 to 1500m
200 to 500 ft
< 800m
< 200 ft
Symbols :   Thunderstorms  Fog  Heavy snow  Heavy precipitations  Wind > 20 kt






- Airport Elevation : 504 ft
- IATA code : WGT


YWGT - Wangaratta

CURRENT METAR :
  • 192300Z AUTO 04003KT 9999 // NCD 16/11 Q1017

EXPIRED METARs :
  • 192200Z AUTO 04003KT 9999 // NCD 13/10 Q1017
  • 192100Z AUTO 00000KT 9999 // NCD 09/09 Q1017
  • 192030Z AUTO 23001KT 2900 // BKN001 07/07 Q1017

TAF TAF YWGT
Valid from the 19 at 19:00 until the 20 at 08:00 UTC


191724Z 1919/2008 VRB03KT 9999 SCT040
FM200100 01006KT CAVOK
PROB30 1919/1921 0500 FG
YMMM FIR / Oceania



MET'MAP, your aeronautical weather chart ! - Copyright ORBIFLY December 2007 - Disclaimer

ORBIFLY MET'MAP TEAM :

Programming & Development : Alexandra Zaïnal
Concept & original design : Baudouin d'Aumeries
Assistance for programming : Marc-Olivier Méhu
Technical & hardware support : Manuel Goepfert

Contact : metmap@orbifly.com




SOURCES & CREDITS :

   NOAA       Earth
Advisory